Time,TemperatureF,DewpointF,PressureIn,WindDirection,WindDirectionDegrees,WindSpeedMPH,WindSpeedGustMPH,Humidity,HourlyPrecipIn,Conditions,Clouds,dailyrainin,SolarRadiationWatts/m^2,SoftwareType,DateUTC
2013-03-14 00:00:00,63.5,51.0,30.07,NW,325,0.0,-999.0,63,-99.99,,,0.00,0,weatherlink.com 1.10,2013-03-14 04:00:00,
2013-03-14 00:15:00,63.2,51.0,30.07,NW,325,0.0,-999.0,64,-99.99,,,0.00,0,weatherlink.com 1.10,2013-03-14 04:15:00,
2013-03-14 00:30:00,62.9,50.0,30.08,NW,325,0.0,-999.0,64,-99.99,,,0.00,0,weatherlink.com 1.10,2013-03-14 04:30:00,
2013-03-14 00:45:00,62.4,50.0,30.07,NW,325,0.0,-999.0,65,-99.99,,,0.00,0,weatherlink.com 1.10,2013-03-14 04:45:00,
2013-03-14 01:00:00,62.1,51.0,30.07,NW,325,0.0,-999.0,66,-99.99,,,0.00,0,weatherlink.com 1.10,2013-03-14 05:00:00,
2013-03-14 01:15:00,61.8,51.0,30.07,NW,325,0.0,-999.0,67,-99.99,,,0.00,0,weatherlink.com 1.10,2013-03-14 05:15:00,
2013-03-14 01:30:00,61.8,51.0,30.07,NW,325,0.0,-999.0,68,-99.99,,,0.00,0,weatherlink.com 1.10,2013-03-14 05:30:00,
2013-03-14 01:45:00,61.5,51.0,30.06,NW,325,0.0,-999.0,68,-99.99,,,0.00,0,weatherlink.com 1.10,2013-03-14 05:45:00,
2013-03-14 02:00:00,61.3,51.0,30.06,NW,325,0.0,-999.0,69,-99.99,,,0.00,0,weatherlink.com 1.10,2013-03-14 06:00:00,
2013-03-14 02:15:00,61.0,51.0,30.07,NW,324,3.0,-999.0,70,-99.99,,,0.00,0,weatherlink.com 1.10,2013-03-14 06:15:00,
2013-03-14 02:30:00,60.9,51.0,30.07,WNW,299,5.0,-999.0,71,-99.99,,,0.00,0,weatherlink.com 1.10,2013-03-14 06:30:00,
2013-03-14 02:45:00,60.7,52.0,30.06,WNW,298,3.0,-999.0,73,-99.99,,,0.00,0,weatherlink.com 1.10,2013-03-14 06:45:00,
2013-03-14 03:00:00,60.4,52.0,30.06,WNW,302,0.0,-999.0,73,-99.99,,,0.00,0,weatherlink.com 1.10,2013-03-14 07:00:00,
2013-03-14 03:15:00,59.8,52.0,30.06,WNW,292,2.0,-999.0,74,-99.99,,,0.00,0,weatherlink.com 1.10,2013-03-14 07:15:00,
2013-03-14 03:30:00,59.3,51.0,30.05,WNW,299,0.0,-999.0,75,-99.99,,,0.00,0,weatherlink.com 1.10,2013-03-14 07:30:00,
2013-03-14 03:45:00,58.7,51.0,30.05,West,278,4.0,-999.0,75,-99.99,,,0.00,0,weatherlink.com 1.10,2013-03-14 07:45:00,
2013-03-14 04:00:00,58.4,51.0,30.05,West,273,3.0,-999.0,75,-99.99,,,0.00,0,weatherlink.com 1.10,2013-03-14 08:00:00,
2013-03-14 04:15:00,58.1,51.0,30.04,West,272,6.0,-999.0,76,-99.99,,,0.00,0,weatherlink.com 1.10,2013-03-14 08:15:00,
2013-03-14 04:30:00,57.8,50.0,30.04,West,278,2.0,-999.0,76,-99.99,,,0.00,0,weatherlink.com 1.10,2013-03-14 08:30:00,
2013-03-14 04:45:00,57.3,50.0,30.04,WNW,299,1.0,-999.0,77,-99.99,,,0.00,0,weatherlink.com 1.10,2013-03-14 08:45:00,
2013-03-14 05:00:00,57.0,50.0,30.04,West,281,0.0,-999.0,77,-99.99,,,0.00,0,weatherlink.com 1.10,2013-03-14 09:00:00,
2013-03-14 05:15:00,56.9,50.0,30.04,WNW,300,2.0,-999.0,78,-99.99,,,0.00,0,weatherlink.com 1.10,2013-03-14 09:15:00,
2013-03-14 05:30:00,56.7,50.0,30.04,NW,308,5.0,-999.0,78,-99.99,,,0.00,0,weatherlink.com 1.10,2013-03-14 09:30:00,
2013-03-14 05:45:00,56.5,50.0,30.04,West,276,2.0,-999.0,78,-99.99,,,0.00,0,weatherlink.com 1.10,2013-03-14 09:45:00,
2013-03-14 06:00:00,56.3,50.0,30.05,West,280,2.0,-999.0,78,-99.99,,,0.00,0,weatherlink.com 1.10,2013-03-14 10:00:00,
2013-03-14 06:15:00,56.2,50.0,30.05,NW,310,4.0,-999.0,79,-99.99,,,0.00,0,weatherlink.com 1.10,2013-03-14 10:15:00,
2013-03-14 06:30:00,56.0,50.0,30.06,WNW,288,4.0,-999.0,79,-99.99,,,0.00,0,weatherlink.com 1.10,2013-03-14 10:30:00,
2013-03-14 06:45:00,55.9,50.0,30.06,WNW,301,3.0,-999.0,79,-99.99,,,0.00,0,weatherlink.com 1.10,2013-03-14 10:45:00,
2013-03-14 07:00:00,55.9,50.0,30.07,NNW,328,7.0,-999.0,79,-99.99,,,0.00,0,weatherlink.com 1.10,2013-03-14 11:00:00,
2013-03-14 07:15:00,55.7,49.0,30.07,NW,322,3.0,-999.0,79,-99.99,,,0.00,0,weatherlink.com 1.10,2013-03-14 11:15:00,
2013-03-14 07:30:00,55.6,49.0,30.07,NW,306,1.0,-999.0,78,-99.99,,,0.00,0,weatherlink.com 1.10,2013-03-14 11:30:00,
2013-03-14 07:45:00,56.0,48.0,30.08,WNW,301,4.0,-999.0,74,-99.99,,,0.00,11,weatherlink.com 1.10,2013-03-14 11:45:00,
2013-03-14 08:00:00,56.3,47.0,30.09,NW,323,10.0,-999.0,70,-99.99,,,0.00,23,weatherlink.com 1.10,2013-03-14 12:00:00,
2013-03-14 08:15:00,56.7,45.0,30.10,North,355,4.0,-999.0,66,-99.99,,,0.00,33,weatherlink.com 1.10,2013-03-14 12:15:00,
2013-03-14 08:30:00,57.2,45.0,30.10,NW,325,3.0,-999.0,63,-99.99,,,0.00,51,weatherlink.com 1.10,2013-03-14 12:30:00,
2013-03-14 08:45:00,59.2,44.0,30.11,NW,317,5.0,-999.0,58,-99.99,,,0.00,148,weatherlink.com 1.10,2013-03-14 12:45:00,
2013-03-14 09:00:00,60.4,42.0,30.11,NNW,328,3.0,-999.0,51,-99.99,,,0.00,69,weatherlink.com 1.10,2013-03-14 13:00:00,
2013-03-14 09:15:00,61.0,40.0,30.12,North,360,7.0,-999.0,46,-99.99,,,0.00,130,weatherlink.com 1.10,2013-03-14 13:15:00,
2013-03-14 09:30:00,61.8,39.0,30.13,NNW,341,7.0,-999.0,43,-99.99,,,0.00,109,weatherlink.com 1.10,2013-03-14 13:30:00,
2013-03-14 09:45:00,62.6,38.0,30.13,North,349,5.0,-999.0,40,-99.99,,,0.00,411,weatherlink.com 1.10,2013-03-14 13:45:00,
2013-03-14 10:00:00,63.7,37.0,30.13,NNE,17,9.0,-999.0,37,-99.99,,,0.00,547,weatherlink.com 1.10,2013-03-14 14:00:00,
2013-03-14 10:15:00,65.0,36.0,30.14,North,360,14.0,-999.0,34,-99.99,,,0.00,624,weatherlink.com 1.10,2013-03-14 14:15:00,
2013-03-14 10:30:00,65.8,37.0,30.14,NNW,345,7.0,-999.0,35,-99.99,,,0.00,643,weatherlink.com 1.10,2013-03-14 14:30:00,
2013-03-14 10:45:00,65.6,38.0,30.14,NW,313,4.0,-999.0,37,-99.99,,,0.00,570,weatherlink.com 1.10,2013-03-14 14:45:00,
2013-03-14 11:00:00,66.3,38.0,30.14,North,351,6.0,-999.0,35,-99.99,,,0.00,701,weatherlink.com 1.10,2013-03-14 15:00:00,
2013-03-14 11:15:00,67.6,39.0,30.14,NNW,331,3.0,-999.0,35,-99.99,,,0.00,740,weatherlink.com 1.10,2013-03-14 15:15:00,
2013-03-14 11:30:00,68.3,39.0,30.14,NNW,343,6.0,-999.0,34,-99.99,,,0.00,775,weatherlink.com 1.10,2013-03-14 15:30:00,
2013-03-14 11:45:00,69.8,39.0,30.14,WNW,286,1.0,-999.0,32,-99.99,,,0.00,807,weatherlink.com 1.10,2013-03-14 15:45:00,
2013-03-14 12:00:00,70.1,39.0,30.14,NNW,333,4.0,-999.0,32,-99.99,,,0.00,844,weatherlink.com 1.10,2013-03-14 16:00:00,
2013-03-14 12:15:00,70.4,37.0,30.14,WNW,289,5.0,-999.0,29,-99.99,,,0.00,858,weatherlink.com 1.10,2013-03-14 16:15:00,
2013-03-14 12:30:00,71.6,37.0,30.14,NNE,22,8.0,-999.0,28,-99.99,,,0.00,891,weatherlink.com 1.10,2013-03-14 16:30:00,
2013-03-14 12:45:00,72.0,37.0,30.13,NE,47,5.0,-999.0,28,-99.99,,,0.00,905,weatherlink.com 1.10,2013-03-14 16:45:00,
2013-03-14 13:00:00,71.8,37.0,30.13,NNW,332,7.0,-999.0,28,-99.99,,,0.00,919,weatherlink.com 1.10,2013-03-14 17:00:00,
2013-03-14 13:30:00,72.8,36.0,30.11,NNE,15,6.0,-999.0,26,-99.99,,,0.00,933,weatherlink.com 1.10,2013-03-14 17:30:00,
2013-03-14 13:45:00,73.2,34.0,30.11,NW,321,3.0,-999.0,24,-99.99,,,0.00,940,weatherlink.com 1.10,2013-03-14 17:45:00,
2013-03-14 14:00:00,72.8,37.0,30.10,North,349,4.0,-999.0,27,-99.99,,,0.00,930,weatherlink.com 1.10,2013-03-14 18:00:00,
2013-03-14 14:15:00,72.7,48.0,30.10,NE,42,11.0,-999.0,42,-99.99,,,0.00,904,weatherlink.com 1.10,2013-03-14 18:15:00,
2013-03-14 14:30:00,71.5,48.0,30.09,NNE,24,10.0,-999.0,43,-99.99,,,0.00,898,weatherlink.com 1.10,2013-03-14 18:30:00,
2013-03-14 14:45:00,70.4,47.0,30.09,NE,53,4.0,-999.0,43,-99.99,,,0.00,874,weatherlink.com 1.10,2013-03-14 18:45:00,
2013-03-14 15:00:00,70.4,47.0,30.08,NNE,15,14.0,-999.0,44,-99.99,,,0.00,849,weatherlink.com 1.10,2013-03-14 19:00:00,
2013-03-14 15:15:00,70.4,48.0,30.08,NNE,26,10.0,-999.0,45,-99.99,,,0.00,821,weatherlink.com 1.10,2013-03-14 19:15:00,
2013-03-14 15:30:00,70.8,48.0,30.08,ENE,74,14.0,-999.0,45,-99.99,,,0.00,789,weatherlink.com 1.10,2013-03-14 19:30:00,
2013-03-14 15:45:00,69.6,49.0,30.08,ENE,78,14.0,-999.0,49,-99.99,,,0.00,756,weatherlink.com 1.10,2013-03-14 19:45:00,
2013-03-14 16:00:00,69.6,49.0,30.07,NE,38,6.0,-999.0,48,-99.99,,,0.00,721,weatherlink.com 1.10,2013-03-14 20:00:00,
2013-03-14 16:15:00,69.6,48.0,30.07,North,360,11.0,-999.0,47,-99.99,,,0.00,675,weatherlink.com 1.10,2013-03-14 20:15:00,
2013-03-14 16:30:00,69.8,47.0,30.07,North,9,8.0,-999.0,45,-99.99,,,0.00,631,weatherlink.com 1.10,2013-03-14 20:30:00,
2013-03-14 16:45:00,69.1,47.0,30.07,NE,50,10.0,-999.0,46,-99.99,,,0.00,584,weatherlink.com 1.10,2013-03-14 20:45:00,
2013-03-14 17:00:00,68.8,48.0,30.07,NE,40,16.0,-999.0,48,-99.99,,,0.00,526,weatherlink.com 1.10,2013-03-14 21:00:00,
2013-03-14 17:15:00,68.4,47.0,30.07,NE,44,12.0,-999.0,46,-99.99,,,0.00,476,weatherlink.com 1.10,2013-03-14 21:15:00,
2013-03-14 17:30:00,68.3,47.0,30.07,NE,36,10.0,-999.0,47,-99.99,,,0.00,424,weatherlink.com 1.10,2013-03-14 21:30:00,
2013-03-14 17:45:00,67.9,46.0,30.07,ENE,65,10.0,-999.0,45,-99.99,,,0.00,366,weatherlink.com 1.10,2013-03-14 21:45:00,
2013-03-14 18:00:00,67.4,46.0,30.08,NE,35,11.0,-999.0,47,-99.99,,,0.00,334,weatherlink.com 1.10,2013-03-14 22:00:00,
2013-03-14 18:15:00,67.1,44.0,30.08,North,11,12.0,-999.0,44,-99.99,,,0.00,223,weatherlink.com 1.10,2013-03-14 22:15:00,
2013-03-14 18:30:00,66.4,46.0,30.09,NE,38,5.0,-999.0,48,-99.99,,,0.00,165,weatherlink.com 1.10,2013-03-14 22:30:00,
2013-03-14 18:45:00,65.8,45.0,30.09,NE,38,8.0,-999.0,48,-99.99,,,0.00,114,weatherlink.com 1.10,2013-03-14 22:45:00,
2013-03-14 19:00:00,65.0,45.0,30.09,NNE,25,9.0,-999.0,48,-99.99,,,0.00,53,weatherlink.com 1.10,2013-03-14 23:00:00,
2013-03-14 19:15:00,64.7,46.0,30.10,NNE,28,10.0,-999.0,51,-99.99,,,0.00,21,weatherlink.com 1.10,2013-03-14 23:15:00,
2013-03-14 19:30:00,64.2,46.0,30.10,NE,55,9.0,-999.0,52,-99.99,,,0.00,0,weatherlink.com 1.10,2013-03-14 23:30:00,
2013-03-14 19:45:00,64.0,47.0,30.10,NE,44,6.0,-999.0,54,-99.99,,,0.00,0,weatherlink.com 1.10,2013-03-14 23:45:00,
2013-03-14 20:00:00,63.7,48.0,30.10,NNE,26,14.0,-999.0,56,-99.99,,,0.00,0,weatherlink.com 1.10,2013-03-15 00:00:00,
2013-03-14 20:15:00,63.5,49.0,30.11,NNE,29,9.0,-999.0,59,-99.99,,,0.00,0,weatherlink.com 1.10,2013-03-15 00:15:00,
2013-03-14 20:30:00,63.2,49.0,30.11,North,360,7.0,-999.0,60,-99.99,,,0.00,0,weatherlink.com 1.10,2013-03-15 00:30:00,
2013-03-14 20:45:00,63.1,50.0,30.11,North,355,5.0,-999.0,62,-99.99,,,0.00,0,weatherlink.com 1.10,2013-03-15 00:45:00,
2013-03-14 21:00:00,62.6,50.0,30.12,WNW,297,4.0,-999.0,63,-99.99,,,0.00,0,weatherlink.com 1.10,2013-03-15 01:00:00,
2013-03-14 21:15:00,62.1,49.0,30.12,NNE,26,8.0,-999.0,63,-99.99,,,0.00,0,weatherlink.com 1.10,2013-03-15 01:15:00,
2013-03-14 21:30:00,61.6,49.0,30.13,NNE,17,4.0,-999.0,64,-99.99,,,0.00,0,weatherlink.com 1.10,2013-03-15 01:30:00,
2013-03-14 21:45:00,61.2,49.0,30.13,North,360,3.0,-999.0,65,-99.99,,,0.00,0,weatherlink.com 1.10,2013-03-15 01:45:00,
2013-03-14 22:00:00,60.9,50.0,30.13,NNE,22,4.0,-999.0,67,-99.99,,,0.00,0,weatherlink.com 1.10,2013-03-15 02:00:00,
2013-03-14 22:15:00,60.7,50.0,30.14,NNE,20,3.0,-999.0,68,-99.99,,,0.00,0,weatherlink.com 1.10,2013-03-15 02:15:00,
2013-03-14 22:30:00,60.4,50.0,30.14,North,11,4.0,-999.0,68,-99.99,,,0.00,0,weatherlink.com 1.10,2013-03-15 02:30:00,
2013-03-14 22:45:00,60.1,49.0,30.14,NNE,24,3.0,-999.0,68,-99.99,,,0.00,0,weatherlink.com 1.10,2013-03-15 02:45:00,
2013-03-14 23:00:00,59.8,50.0,30.14,NNE,14,3.0,-999.0,69,-99.99,,,0.00,0,weatherlink.com 1.10,2013-03-15 03:00:00,
2013-03-14 23:15:00,59.6,49.0,30.14,North,360,3.0,-999.0,69,-99.99,,,0.00,0,weatherlink.com 1.10,2013-03-15 03:15:00,
2013-03-14 23:30:00,59.3,49.0,30.14,NNW,340,2.0,-999.0,69,-99.99,,,0.00,0,weatherlink.com 1.10,2013-03-15 03:30:00,
2013-03-14 23:45:00,59.0,49.0,30.14,NNW,336,0.0,-999.0,70,-99.99,,,0.00,0,weatherlink.com 1.10,2013-03-15 03:45:00,